Terminal Aerodrome Forecast
Issued by NWS Nashville, TN

Home | Current Version | Previous Version | Text Only | Print | Product List | Glossary On
Versions: 1 2 3 4 5 6 7 8 9 10 11 12 13 14 15
000
FTUS44 KOHX 041720
TAFCSV
TAF
KCSV 041720Z 0418/0518 05006KT P6SM SCT045
      TEMPO 0509/0513 00000KT 2SM BR=

USA.gov is the U.S. government's official web portal to all federal, state and local government web resources and services.